VOG weather

Volgograd International Airport
Volgograd, Volgograd Oblast, Russia

Public forecast

Using degrees Celsius for public forecast. Weather courtesy of forecast.io.

METAR (pilot weather report)

Retrieved 2019/09/19 01:30 UTC (0 seconds ago):

URWW 190130Z 25009MPS CAVOK 08/04 Q1009 R24/290053 NOSIG

TAF (pilot weather forecast)

Forecast is more than 12 hours old.

Retrieved 2015/12/24 15:15 UTC (4 years ago):

TAF COR TAF COR URWW 241510Z 2415/2524 30013G18MPS 9999 BKN007 SCT020CB BKN100 TEMPO 2415/2421 27008G13MPS 2100 -SHRA BR